Time;durP1;ratioP1;P1;durP2;ratioP2;P2;SDS_P1;SDS_P2;PMS_P1;PMS_P2;Temp;Humidity;BMP_temperature;BMP_pressure;BME280_temperature;BME280_humidity;BME280_pressure;Samples;Min_cycle;Max_cycle;Signal;HPM_P1;HPM_P2
2022/02/07 00:00:44;;;;;;;;;;;22.10;44.80;;;;;;5158707;27;20018;-47
2022/02/07 00:03:29;;;;;;;;;;;22.10;44.20;;;;;;5158735;27;20017;-45
2022/02/07 00:05:56;;;;;;;;;;;22.10;44.20;;;;;;5145205;27;20386;-46
2022/02/07 00:08:23;;;;;;;;;;;22.10;44.20;;;;;;5137793;27;19924;-46
2022/02/07 00:10:50;;;;;;;;;;;22.10;44.20;;;;;;5137825;27;19923;-47
2022/02/07 00:13:17;;;;;;;;;;;22.10;44.20;;;;;;5150906;27;19962;-47
2022/02/07 00:15:44;;;;;;;;;;;22.00;44.20;;;;;;5158704;27;19975;-45
2022/02/07 00:18:11;;;;;;;;;;;22.00;44.20;;;;;;5158213;27;19923;-49
2022/02/07 00:20:38;;;;;;;;;;;22.00;44.20;;;;;;5158573;27;19923;-44
2022/02/07 00:23:06;;;;;;;;;;;22.00;44.20;;;;;;5158458;27;20327;-47
2022/02/07 00:25:34;;;;;;;;;;;22.00;44.20;;;;;;5158242;27;19923;-46
2022/02/07 00:28:02;;;;;;;;;;;22.00;44.20;;;;;;5157681;27;19958;-45
2022/02/07 00:30:29;;;;;;;;;;;22.00;44.20;;;;;;5158067;27;19927;-45
2022/02/07 00:32:56;;;;;;;;;;;22.00;44.20;;;;;;5158129;27;19923;-46
2022/02/07 00:35:24;;;;;;;;;;;22.00;44.20;;;;;;5158079;27;19976;-47
2022/02/07 00:37:53;;;;;;;;;;;22.00;44.20;;;;;;5158044;27;19923;-46
2022/02/07 00:42:54;;;;;;;;;;;22.00;44.20;;;;;;5156860;27;20390;-47
2022/02/07 00:45:42;;;;;;;;;;;22.00;44.20;;;;;;5157873;27;20005;-45
2022/02/07 00:48:09;;;;;;;;;;;22.00;44.20;;;;;;5158209;27;19952;-44
2022/02/07 00:50:37;;;;;;;;;;;22.00;44.20;;;;;;5157885;27;19923;-48
2022/02/07 00:53:05;;;;;;;;;;;22.00;44.20;;;;;;5157867;27;20298;-47
2022/02/07 00:55:33;;;;;;;;;;;22.00;44.20;;;;;;5157626;27;19927;-47
2022/02/07 00:58:01;;;;;;;;;;;22.00;44.30;;;;;;5156899;27;19953;-47
2022/02/07 01:00:28;;;;;;;;;;;22.00;44.30;;;;;;5158739;27;19923;-45
2022/02/07 01:02:56;;;;;;;;;;;22.00;44.30;;;;;;5157556;27;19923;-48
2022/02/07 01:05:23;;;;;;;;;;;22.00;44.30;;;;;;5149289;27;19978;-47
2022/02/07 01:07:51;;;;;;;;;;;22.00;44.30;;;;;;5137084;27;19972;-49
2022/02/07 01:10:24;;;;;;;;;;;22.00;44.30;;;;;;5136586;27;19923;-51
2022/02/07 01:13:07;;;;;;;;;;;22.00;44.30;;;;;;5140742;27;19923;-51
2022/02/07 01:15:49;;;;;;;;;;;22.00;44.30;;;;;;5157623;27;19938;-44
2022/02/07 01:55:58;;;;;;;;;;;21.90;44.30;;;;;;5135789;27;19927;-44
2022/02/07 01:58:25;;;;;;;;;;;21.90;44.30;;;;;;5122826;27;19971;-45
2022/02/07 02:00:52;;;;;;;;;;;21.90;44.30;;;;;;5156684;27;19945;-44
2022/02/07 02:03:19;;;;;;;;;;;22.00;44.40;;;;;;5156663;27;19923;-46
2022/02/07 02:05:46;;;;;;;;;;;21.90;44.30;;;;;;5144653;27;20289;-47
2022/02/07 02:08:18;;;;;;;;;;;22.00;44.40;;;;;;5135456;27;19927;-44
2022/02/07 02:10:49;;;;;;;;;;;21.90;44.30;;;;;;5136283;27;19966;-47
2022/02/07 02:13:24;;;;;;;;;;;21.90;44.30;;;;;;5137586;27;19978;-44
2022/02/07 02:47:57;;;;;;;;;;;21.90;44.40;;;;;;5155591;27;19967;-47
2022/02/07 02:50:29;;;;;;;;;;;21.90;44.40;;;;;;5155315;27;19927;-45
2022/02/07 02:52:57;;;;;;;;;;;21.90;44.40;;;;;;5156209;27;19976;-44
2022/02/07 02:55:24;;;;;;;;;;;21.90;44.50;;;;;;5155433;27;19935;-49
2022/02/07 02:57:51;;;;;;;;;;;21.90;44.40;;;;;;5155703;27;20286;-46
2022/02/07 03:00:18;;;;;;;;;;;21.90;44.40;;;;;;5154599;27;19930;-45
2022/02/07 03:02:45;;;;;;;;;;;21.90;44.40;;;;;;5155664;27;19930;-46
2022/02/07 03:05:12;;;;;;;;;;;21.90;44.50;;;;;;5148741;27;20314;-44
2022/02/07 03:07:39;;;;;;;;;;;21.90;44.40;;;;;;5134620;27;20013;-46
2022/02/07 03:10:07;;;;;;;;;;;21.90;44.50;;;;;;5134498;27;19923;-45
2022/02/07 03:12:44;;;;;;;;;;;21.90;44.50;;;;;;5134717;27;20386;-48
2022/02/07 03:18:07;;;;;;;;;;;21.90;44.50;;;;;;5071258;28;19924;-46
2022/02/07 03:20:34;;;;;;;;;;;21.90;44.50;;;;;;5071479;28;20414;-44
2022/02/07 03:23:01;;;;;;;;;;;21.90;44.40;;;;;;5071356;28;19974;-45
2022/02/07 03:25:28;;;;;;;;;;;21.90;44.40;;;;;;5071310;28;19925;-44
2022/02/07 03:27:55;;;;;;;;;;;21.90;44.40;;;;;;5071314;28;20015;-46
2022/02/07 03:30:22;;;;;;;;;;;21.90;44.40;;;;;;5084265;28;19924;-46
2022/02/07 03:32:49;;;;;;;;;;;21.90;44.50;;;;;;5074594;28;20023;-48
2022/02/07 03:35:18;;;;;;;;;;;21.90;44.40;;;;;;5091707;28;19960;-47
2022/02/07 03:37:46;;;;;;;;;;;21.90;44.40;;;;;;5091523;28;19974;-47
2022/02/07 03:40:13;;;;;;;;;;;21.90;44.50;;;;;;5091360;28;19967;-47
2022/02/07 03:42:40;;;;;;;;;;;21.90;44.50;;;;;;5091437;28;19928;-46
2022/02/07 03:45:07;;;;;;;;;;;21.90;44.50;;;;;;5090527;28;19950;-45
2022/02/07 03:47:35;;;;;;;;;;;21.90;44.50;;;;;;5091382;28;19924;-46
2022/02/07 03:50:02;;;;;;;;;;;21.80;44.40;;;;;;5091132;28;20308;-44
2022/02/07 03:52:29;;;;;;;;;;;21.90;44.50;;;;;;5090959;28;20446;-44
2022/02/07 03:54:56;;;;;;;;;;;21.90;44.50;;;;;;5119334;28;19931;-49
2022/02/07 03:57:23;;;;;;;;;;;21.90;44.50;;;;;;5134088;28;19968;-44
2022/02/07 03:59:50;;;;;;;;;;;21.80;44.40;;;;;;5139958;27;20454;-48
2022/02/07 04:02:17;;;;;;;;;;;21.80;44.40;;;;;;5155076;27;20010;-47
2022/02/07 04:04:48;;;;;;;;;;;21.80;44.40;;;;;;5152239;27;20382;-49
2022/02/07 04:07:16;;;;;;;;;;;21.90;44.50;;;;;;5134027;28;19923;-45
2022/02/07 04:09:48;;;;;;;;;;;21.80;44.40;;;;;;5133984;28;19928;-45
2022/02/07 04:12:19;;;;;;;;;;;21.80;44.40;;;;;;5134251;28;20310;-48
2022/02/07 04:14:46;;;;;;;;;;;21.80;44.40;;;;;;5138627;27;19931;-45
2022/02/07 04:17:19;;;;;;;;;;;21.80;44.40;;;;;;5154963;27;19965;-46
2022/02/07 04:19:46;;;;;;;;;;;21.80;44.50;;;;;;5154448;27;19966;-47
2022/02/07 04:22:13;;;;;;;;;;;21.80;44.50;;;;;;5157640;27;19927;-49
2022/02/07 04:24:40;;;;;;;;;;;21.80;44.50;;;;;;5158596;27;20342;-46
2022/02/07 04:27:07;;;;;;;;;;;21.80;44.40;;;;;;5158552;27;19923;-49
2022/02/07 04:29:34;;;;;;;;;;;21.80;44.40;;;;;;5157122;27;20377;-47
2022/02/07 04:32:01;;;;;;;;;;;21.80;44.50;;;;;;5158374;27;19923;-43
2022/02/07 04:34:28;;;;;;;;;;;21.80;44.50;;;;;;5159205;27;19952;-46
2022/02/07 04:36:56;;;;;;;;;;;21.80;44.40;;;;;;5158061;27;19923;-47
2022/02/07 04:39:23;;;;;;;;;;;21.80;44.40;;;;;;5158046;27;20411;-46
2022/02/07 04:41:53;;;;;;;;;;;21.80;44.40;;;;;;5157994;27;20037;-49
2022/02/07 04:44:27;;;;;;;;;;;21.80;44.40;;;;;;5158254;27;20359;-47
2022/02/07 04:49:45;;;;;;;;;;;21.80;44.40;;;;;;5157935;27;20029;-46
2022/02/07 04:54:56;;;;;;;;;;;21.80;44.50;;;;;;5158114;27;20335;-45
2022/02/07 05:01:08;;;;;;;;;;;21.80;44.50;;;;;;5157133;27;19923;-46
2022/02/07 05:03:02;;;;;;;;;;;21.80;44.50;;;;;;5144747;27;20427;-48
2022/02/07 05:16:18;;;;;;;;;;;21.80;44.50;;;;;;5147139;27;19923;-47
2022/02/07 05:18:49;;;;;;;;;;;21.80;44.50;;;;;;5156989;27;20018;-47
2022/02/07 05:21:16;;;;;;;;;;;21.80;44.50;;;;;;5157361;27;19930;-49
2022/02/07 05:23:43;;;;;;;;;;;21.80;44.50;;;;;;5157122;27;20017;-45
2022/02/07 05:26:10;;;;;;;;;;;21.80;44.50;;;;;;5157437;27;19923;-48
2022/02/07 05:28:37;;;;;;;;;;;21.80;44.50;;;;;;5157039;27;20014;-50
2022/02/07 05:31:04;;;;;;;;;;;21.80;44.50;;;;;;5156167;27;19963;-46
2022/02/07 05:33:31;;;;;;;;;;;21.80;44.50;;;;;;5155846;27;19923;-53
2022/02/07 05:35:58;;;;;;;;;;;21.80;44.50;;;;;;5157236;27;19958;-44
2022/02/07 05:38:25;;;;;;;;;;;21.80;44.50;;;;;;5156862;27;19927;-49
2022/02/07 05:40:59;;;;;;;;;;;21.80;44.50;;;;;;5156805;27;20375;-47
2022/02/07 05:43:27;;;;;;;;;;;21.80;44.50;;;;;;5157096;27;19923;-47
2022/02/07 05:45:54;;;;;;;;;;;21.80;44.50;;;;;;5156166;27;19923;-45
2022/02/07 05:48:21;;;;;;;;;;;21.80;44.50;;;;;;5156504;27;20029;-50
2022/02/07 05:50:48;;;;;;;;;;;21.70;44.40;;;;;;5156944;27;19937;-52
2022/02/07 05:53:15;;;;;;;;;;;21.80;44.50;;;;;;5156827;27;19962;-50
2022/02/07 05:55:42;;;;;;;;;;;21.70;44.50;;;;;;5156539;27;19923;-46
2022/02/07 05:58:09;;;;;;;;;;;21.80;44.50;;;;;;5156834;27;19923;-52
2022/02/07 06:00:37;;;;;;;;;;;21.70;44.40;;;;;;5155626;27;19991;-52
2022/02/07 06:03:05;;;;;;;;;;;21.70;44.40;;;;;;5156388;27;19923;-50
2022/02/07 06:05:32;;;;;;;;;;;21.70;44.40;;;;;;5156630;27;19968;-45
2022/02/07 06:07:59;;;;;;;;;;;21.70;44.40;;;;;;5156293;27;19953;-48
2022/02/07 06:10:27;;;;;;;;;;;21.70;44.40;;;;;;5156785;27;19930;-43
2022/02/07 06:12:54;;;;;;;;;;;21.70;44.40;;;;;;5156119;27;20374;-42
2022/02/07 06:15:21;;;;;;;;;;;21.70;44.40;;;;;;5156122;27;19930;-43
2022/02/07 06:17:51;;;;;;;;;;;21.70;44.40;;;;;;5155039;27;19929;-47
2022/02/07 06:20:18;;;;;;;;;;;21.70;44.40;;;;;;5156285;27;19923;-46
2022/02/07 06:22:47;;;;;;;;;;;21.70;44.40;;;;;;5155795;27;19981;-45
2022/02/07 06:25:14;;;;;;;;;;;21.70;44.40;;;;;;5155857;27;19923;-47
2022/02/07 06:27:41;;;;;;;;;;;21.70;44.40;;;;;;5155922;27;19927;-45
2022/02/07 06:30:10;;;;;;;;;;;21.70;44.40;;;;;;5156129;27;19930;-46
2022/02/07 06:32:38;;;;;;;;;;;21.70;44.40;;;;;;5154959;27;20007;-45
2022/02/07 06:35:05;;;;;;;;;;;21.70;44.40;;;;;;5156076;27;19923;-47
2022/02/07 06:37:32;;;;;;;;;;;21.70;44.50;;;;;;5155970;27;20438;-48
2022/02/07 06:39:59;;;;;;;;;;;21.70;44.40;;;;;;5155896;27;20382;-49
2022/02/07 06:42:26;;;;;;;;;;;21.70;44.40;;;;;;5155947;27;20405;-47
2022/02/07 06:44:53;;;;;;;;;;;21.70;44.40;;;;;;5155571;27;19923;-46
2022/02/07 06:47:20;;;;;;;;;;;21.70;44.40;;;;;;5154314;27;19923;-45
2022/02/07 06:49:47;;;;;;;;;;;21.70;44.40;;;;;;5155367;27;19927;-44
2022/02/07 06:52:14;;;;;;;;;;;21.70;44.50;;;;;;5155147;27;20011;-49
2022/02/07 06:54:41;;;;;;;;;;;21.70;44.50;;;;;;5155728;27;19923;-46
2022/02/07 06:57:08;;;;;;;;;;;21.70;44.50;;;;;;5155696;27;19923;-45
2022/02/07 06:59:40;;;;;;;;;;;21.70;44.50;;;;;;5156061;27;19975;-45
2022/02/07 07:02:08;;;;;;;;;;;21.70;44.50;;;;;;5144375;27;19966;-48
2022/02/07 07:04:35;;;;;;;;;;;21.70;44.50;;;;;;5134847;27;20016;-48
2022/02/07 07:07:02;;;;;;;;;;;21.70;44.50;;;;;;5134735;27;20030;-45
2022/02/07 07:09:31;;;;;;;;;;;21.70;44.50;;;;;;5134658;27;20062;-46
2022/02/07 07:12:03;;;;;;;;;;;21.70;44.40;;;;;;5135591;27;19963;-50
2022/02/07 07:14:40;;;;;;;;;;;21.70;44.40;;;;;;5134971;27;19983;-49
2022/02/07 07:17:07;;;;;;;;;;;21.70;44.40;;;;;;5142687;27;19923;-49
2022/02/07 07:19:35;;;;;;;;;;;21.70;44.40;;;;;;5154995;27;20406;-45
2022/02/07 07:22:02;;;;;;;;;;;21.70;44.40;;;;;;5154862;27;19923;-48
2022/02/07 07:24:28;;;;;;;;;;;21.70;44.40;;;;;;5155097;27;20362;-48
2022/02/07 07:26:56;;;;;;;;;;;21.70;44.40;;;;;;5155343;27;20351;-45
2022/02/07 07:29:29;;;;;;;;;;;21.70;44.30;;;;;;5155334;27;19931;-49
2022/02/07 07:32:02;;;;;;;;;;;21.70;44.40;;;;;;5154824;27;19935;-45
2022/02/07 07:34:31;;;;;;;;;;;21.70;44.30;;;;;;5155000;27;19927;-48
2022/02/07 07:36:58;;;;;;;;;;;21.70;44.30;;;;;;5155295;27;20331;-45
2022/02/07 07:39:26;;;;;;;;;;;21.70;44.30;;;;;;5155236;27;19923;-47
2022/02/07 07:41:53;;;;;;;;;;;21.70;44.30;;;;;;5154982;27;19923;-46
2022/02/07 07:44:29;;;;;;;;;;;21.70;44.30;;;;;;5155199;27;20327;-50
2022/02/07 07:47:04;;;;;;;;;;;21.70;44.30;;;;;;5150101;27;19973;-52
2022/02/07 07:49:43;;;;;;;;;;;21.80;44.90;;;;;;5134306;28;19930;-45
2022/02/07 07:52:14;;;;;;;;;;;21.80;44.30;;;;;;5134324;28;19924;-49
2022/02/07 07:54:58;;;;;;;;;;;21.80;44.30;;;;;;5134658;27;20319;-48
2022/02/07 08:03:17;;;;;;;;;;;21.80;44.20;;;;;;5068013;28;20039;-45
2022/02/07 08:05:49;;;;;;;;;;;21.80;44.20;;;;;;5074700;28;20383;-48
2022/02/07 08:08:36;;;;;;;;;;;21.80;44.20;;;;;;5074801;28;19935;-49
2022/02/07 08:11:07;;;;;;;;;;;21.80;44.10;;;;;;5074602;28;19924;-45
2022/02/07 08:13:34;;;;;;;;;;;21.80;44.20;;;;;;5074247;28;19974;-49
2022/02/07 08:16:01;;;;;;;;;;;21.80;44.10;;;;;;5074399;28;19982;-48
2022/02/07 08:18:28;;;;;;;;;;;21.80;44.10;;;;;;5073043;28;19924;-48
2022/02/07 08:20:55;;;;;;;;;;;21.80;44.10;;;;;;5074367;28;19925;-48
2022/02/07 08:23:22;;;;;;;;;;;21.80;44.20;;;;;;5074082;28;20007;-49
2022/02/07 08:25:52;;;;;;;;;;;21.80;44.10;;;;;;5074228;28;20015;-49
2022/02/07 08:28:39;;;;;;;;;;;21.80;44.70;;;;;;5074635;28;19931;-46
2022/02/07 08:31:06;;;;;;;;;;;21.80;44.10;;;;;;5057423;28;19928;-47
2022/02/07 08:33:33;;;;;;;;;;;21.80;44.10;;;;;;5085936;28;19931;-52
2022/02/07 08:36:00;;;;;;;;;;;21.80;44.10;;;;;;5116822;28;19963;-51
2022/02/07 08:38:28;;;;;;;;;;;21.80;44.10;;;;;;5116851;28;19958;-47
2022/02/07 08:40:55;;;;;;;;;;;21.80;44.10;;;;;;5116518;28;19953;-47
2022/02/07 08:43:22;;;;;;;;;;;21.80;44.00;;;;;;5116995;28;20283;-45
2022/02/07 08:45:49;;;;;;;;;;;21.80;44.00;;;;;;5116552;28;19923;-44
2022/02/07 08:48:16;;;;;;;;;;;21.90;44.10;;;;;;5126162;27;20395;-50
2022/02/07 08:50:45;;;;;;;;;;;21.90;44.00;;;;;;5137331;27;20329;-47
2022/02/07 08:53:13;;;;;;;;;;;21.90;44.00;;;;;;5137690;27;20332;-46
2022/02/07 08:55:43;;;;;;;;;;;21.90;44.00;;;;;;5136842;27;19924;-47
2022/02/07 08:58:16;;;;;;;;;;;21.90;44.00;;;;;;5137859;27;19976;-46
2022/02/07 09:00:51;;;;;;;;;;;21.90;44.00;;;;;;5137543;27;19927;-47
2022/02/07 09:03:45;;;;;;;;;;;21.90;44.00;;;;;;5136073;27;19924;-48
2022/02/07 09:09:07;;;;;;;;;;;21.90;43.90;;;;;;5116298;28;19924;-45
2022/02/07 09:11:35;;;;;;;;;;;21.90;44.00;;;;;;5116359;28;19927;-45
2022/02/07 09:14:09;;;;;;;;;;;21.90;44.00;;;;;;5116017;28;19973;-46
2022/02/07 09:16:37;;;;;;;;;;;21.90;43.90;;;;;;5116067;28;20026;-48
2022/02/07 09:19:05;;;;;;;;;;;22.00;43.90;;;;;;5141040;27;19963;-45
2022/02/07 09:21:32;;;;;;;;;;;22.00;43.90;;;;;;5157293;27;19923;-50
2022/02/07 09:23:59;;;;;;;;;;;22.00;43.90;;;;;;5157273;27;19923;-51
2022/02/07 09:26:27;;;;;;;;;;;22.00;43.80;;;;;;5157456;27;19927;-48
2022/02/07 09:28:54;;;;;;;;;;;22.00;43.70;;;;;;5157408;27;19972;-45
2022/02/07 09:31:21;;;;;;;;;;;22.10;43.80;;;;;;5157251;27;19923;-47
2022/02/07 09:33:49;;;;;;;;;;;22.10;43.70;;;;;;5155941;27;19924;-46
2022/02/07 09:36:16;;;;;;;;;;;22.10;43.70;;;;;;5138518;27;19967;-48
2022/02/07 09:38:43;;;;;;;;;;;22.10;43.70;;;;;;5156837;27;19977;-45
2022/02/07 09:41:11;;;;;;;;;;;22.10;43.60;;;;;;5157085;27;19953;-47
2022/02/07 09:43:45;;;;;;;;;;;22.10;43.60;;;;;;5157961;27;20324;-49
2022/02/07 09:46:21;;;;;;;;;;;22.10;43.60;;;;;;5156913;27;20343;-46
2022/02/07 09:48:51;;;;;;;;;;;22.20;43.60;;;;;;5128367;27;19923;-48
2022/02/07 09:51:19;;;;;;;;;;;22.20;43.60;;;;;;5135910;27;19924;-46
2022/02/07 09:53:46;;;;;;;;;;;22.20;43.60;;;;;;5136224;27;20062;-45
2022/02/07 09:56:13;;;;;;;;;;;22.20;43.50;;;;;;5136108;27;20341;-47
2022/02/07 09:58:40;;;;;;;;;;;22.20;43.50;;;;;;5136313;27;19949;-46
2022/02/07 10:01:11;;;;;;;;;;;22.20;43.50;;;;;;5135648;27;19952;-46
2022/02/07 10:03:58;;;;;;;;;;;22.20;43.50;;;;;;5142342;27;20029;-46
2022/02/07 10:09:20;;;;;;;;;;;22.20;43.50;;;;;;5135470;27;19955;-45
2022/02/07 10:42:13;;;;;;;;;;;22.20;43.40;;;;;;5155754;27;19953;-47
2022/02/07 10:44:43;;;;;;;;;;;22.20;43.40;;;;;;5154113;27;20009;-50
2022/02/07 10:47:19;;;;;;;;;;;22.30;43.50;;;;;;5155675;27;19972;-52
2022/02/07 10:49:59;;;;;;;;;;;22.30;43.40;;;;;;5154449;27;19934;-53
2022/02/07 10:52:27;;;;;;;;;;;22.30;43.40;;;;;;5155300;27;19967;-51
2022/02/07 10:54:54;;;;;;;;;;;22.30;43.40;;;;;;5155811;27;19923;-52
2022/02/07 10:57:26;;;;;;;;;;;22.30;43.40;;;;;;5155824;27;19957;-54
2022/02/07 10:59:53;;;;;;;;;;;22.30;43.40;;;;;;5155219;27;19923;-44
2022/02/07 11:02:49;;;;;;;;;;;22.30;43.40;;;;;;5155199;27;20435;-44
2022/02/07 11:05:11;;;;;;;;;;;22.30;43.40;;;;;;5146926;27;20298;-45
2022/02/07 11:07:38;;;;;;;;;;;22.30;43.40;;;;;;5134581;27;20386;-46
2022/02/07 11:12:43;;;;;;;;;;;22.30;43.30;;;;;;5134471;27;19923;-47
2022/02/07 11:15:26;;;;;;;;;;;22.40;43.40;;;;;;5134450;27;19923;-48
2022/02/07 11:18:08;;;;;;;;;;;22.40;43.40;;;;;;5134234;27;20410;-47
2022/02/07 11:23:18;;;;;;;;;;;22.40;43.30;;;;;;5154983;27;19923;-46
2022/02/07 11:26:15;;;;;;;;;;;22.40;43.20;;;;;;5155205;27;20474;-47
2022/02/07 11:28:43;;;;;;;;;;;22.40;43.20;;;;;;5155190;27;19930;-46
2022/02/07 11:31:12;;;;;;;;;;;22.40;43.20;;;;;;5157301;27;19930;-48
2022/02/07 11:33:48;;;;;;;;;;;22.40;43.20;;;;;;5159598;27;20355;-45
2022/02/07 11:36:30;;;;;;;;;;;22.40;43.10;;;;;;5159645;27;19923;-45
2022/02/07 11:39:03;;;;;;;;;;;22.50;43.20;;;;;;5159591;27;19934;-45
2022/02/07 11:41:50;;;;;;;;;;;22.50;43.30;;;;;;5159176;27;19923;-46
2022/02/07 11:44:16;;;;;;;;;;;22.50;43.20;;;;;;5159102;27;20023;-45
2022/02/07 11:46:43;;;;;;;;;;;22.50;43.20;;;;;;5159191;27;19923;-53
2022/02/07 11:49:11;;;;;;;;;;;22.50;43.20;;;;;;5157863;27;19974;-49
2022/02/07 11:51:39;;;;;;;;;;;22.50;43.20;;;;;;5158816;27;19970;-45
2022/02/07 11:54:07;;;;;;;;;;;22.50;43.10;;;;;;5158876;27;20378;-49
2022/02/07 11:56:44;;;;;;;;;;;22.50;43.10;;;;;;5159185;27;20263;-46
2022/02/07 11:59:17;;;;;;;;;;;22.50;43.10;;;;;;5158889;27;19975;-49
2022/02/07 12:01:47;;;;;;;;;;;22.50;43.10;;;;;;5158835;27;20474;-46
2022/02/07 12:04:28;;;;;;;;;;;22.50;43.10;;;;;;5157717;27;19976;-52
2022/02/07 12:07:09;;;;;;;;;;;22.50;43.20;;;;;;5120061;27;19923;-52
2022/02/07 12:09:36;;;;;;;;;;;22.50;43.20;;;;;;5137804;27;19959;-49
2022/02/07 12:12:03;;;;;;;;;;;22.50;43.20;;;;;;5137924;27;19976;-45
2022/02/07 12:14:35;;;;;;;;;;;22.50;43.10;;;;;;5137730;27;19975;-52
2022/02/07 12:17:03;;;;;;;;;;;22.50;43.20;;;;;;5137741;27;19962;-50
2022/02/07 12:19:37;;;;;;;;;;;22.50;43.20;;;;;;5138904;27;20390;-50
2022/02/07 12:22:19;;;;;;;;;;;22.50;43.20;;;;;;5158535;27;19984;-45
2022/02/07 12:24:58;;;;;;;;;;;22.50;43.20;;;;;;5158366;27;20022;-52
2022/02/07 12:27:27;;;;;;;;;;;22.50;43.20;;;;;;5158632;27;19923;-44
2022/02/07 12:30:45;;;;;;;;;;;22.50;43.20;;;;;;5158545;27;20339;-47
2022/02/07 12:32:46;;;;;;;;;;;22.50;43.20;;;;;;5150051;27;20397;-47
2022/02/07 12:35:14;;;;;;;;;;;22.50;43.10;;;;;;5157278;27;19966;-46
2022/02/07 12:37:41;;;;;;;;;;;22.50;43.10;;;;;;5158299;27;19962;-45
2022/02/07 12:40:10;;;;;;;;;;;22.50;43.10;;;;;;5158049;27;20017;-45
2022/02/07 12:42:38;;;;;;;;;;;22.50;43.10;;;;;;5157328;27;20013;-49
2022/02/07 12:45:05;;;;;;;;;;;22.60;43.20;;;;;;5158286;27;19992;-48
2022/02/07 12:47:35;;;;;;;;;;;22.60;43.10;;;;;;5157807;27;19958;-43
2022/02/07 12:50:13;;;;;;;;;;;22.60;43.10;;;;;;5157083;27;19976;-45
2022/02/07 12:52:41;;;;;;;;;;;22.60;43.20;;;;;;5157535;27;19976;-47
2022/02/07 12:55:13;;;;;;;;;;;22.60;43.10;;;;;;5158046;27;19923;-46
2022/02/07 12:57:40;;;;;;;;;;;22.60;43.10;;;;;;5157700;27;20310;-47
2022/02/07 13:00:13;;;;;;;;;;;22.60;43.10;;;;;;5157979;27;19927;-46
2022/02/07 13:02:41;;;;;;;;;;;22.60;43.10;;;;;;5157909;27;19966;-43
2022/02/07 13:05:09;;;;;;;;;;;22.60;43.10;;;;;;5154655;27;19977;-45
2022/02/07 13:07:41;;;;;;;;;;;22.60;43.10;;;;;;5157500;27;19976;-46
2022/02/07 13:10:12;;;;;;;;;;;22.60;43.10;;;;;;5157502;27;19923;-45
2022/02/07 13:13:26;;;;;;;;;;;22.70;43.10;;;;;;5157375;27;19923;-44
2022/02/07 13:15:56;;;;;;;;;;;22.70;43.10;;;;;;5157683;27;19923;-44
2022/02/07 13:18:27;;;;;;;;;;;22.70;43.10;;;;;;5156946;27;19930;-46
2022/02/07 13:20:55;;;;;;;;;;;22.70;43.10;;;;;;5156260;27;19923;-44
2022/02/07 13:23:22;;;;;;;;;;;22.70;43.10;;;;;;5157007;27;19963;-46
2022/02/07 13:25:54;;;;;;;;;;;22.70;43.00;;;;;;5157137;27;19927;-48
2022/02/07 13:28:22;;;;;;;;;;;22.70;43.10;;;;;;5157992;27;20270;-47
2022/02/07 13:30:50;;;;;;;;;;;22.70;43.00;;;;;;5157397;27;19962;-47
2022/02/07 13:33:18;;;;;;;;;;;22.70;43.10;;;;;;5157146;27;19927;-47
2022/02/07 13:35:47;;;;;;;;;;;22.70;43.00;;;;;;5155755;27;19927;-48
2022/02/07 13:38:15;;;;;;;;;;;22.70;43.00;;;;;;5156868;27;20002;-46
2022/02/07 13:40:42;;;;;;;;;;;22.70;43.10;;;;;;5156880;27;19927;-45
2022/02/07 13:43:20;;;;;;;;;;;22.70;43.00;;;;;;5157144;27;19930;-48
2022/02/07 13:45:53;;;;;;;;;;;22.70;43.00;;;;;;5157220;27;19968;-53
2022/02/07 13:48:22;;;;;;;;;;;22.70;43.00;;;;;;5156547;27;19984;-48
2022/02/07 13:50:50;;;;;;;;;;;22.70;43.00;;;;;;5155836;27;19941;-46
2022/02/07 13:53:18;;;;;;;;;;;22.70;42.90;;;;;;5155402;27;19974;-47
2022/02/07 13:55:49;;;;;;;;;;;22.80;43.00;;;;;;5156524;27;19923;-46
2022/02/07 13:58:17;;;;;;;;;;;22.70;42.90;;;;;;5156936;27;20013;-46
2022/02/07 14:00:45;;;;;;;;;;;22.80;43.00;;;;;;5156736;27;19930;-49
2022/02/07 14:03:26;;;;;;;;;;;22.80;43.00;;;;;;5156316;27;19958;-45
2022/02/07 14:05:58;;;;;;;;;;;22.80;43.00;;;;;;5147680;27;19930;-47
2022/02/07 14:08:30;;;;;;;;;;;22.80;43.00;;;;;;5156346;27;19934;-49
2022/02/07 14:10:58;;;;;;;;;;;22.80;43.00;;;;;;5156264;27;19948;-52
2022/02/07 14:13:25;;;;;;;;;;;22.80;43.00;;;;;;5156117;27;19923;-46
2022/02/07 14:15:52;;;;;;;;;;;22.80;43.00;;;;;;5156147;27;19923;-49
2022/02/07 14:18:21;;;;;;;;;;;22.80;43.10;;;;;;5155793;27;19970;-47
2022/02/07 14:20:49;;;;;;;;;;;22.80;43.10;;;;;;5155047;27;20378;-48
2022/02/07 14:23:17;;;;;;;;;;;22.80;43.10;;;;;;5156089;27;19984;-45
2022/02/07 14:25:46;;;;;;;;;;;22.80;43.10;;;;;;5156294;27;19924;-44
2022/02/07 14:28:14;;;;;;;;;;;22.80;43.10;;;;;;5138451;27;19923;-45
2022/02/07 14:30:42;;;;;;;;;;;22.80;43.10;;;;;;5156223;27;20302;-45
2022/02/07 14:33:09;;;;;;;;;;;22.80;43.20;;;;;;5155745;27;19930;-46
2022/02/07 14:35:36;;;;;;;;;;;22.80;43.20;;;;;;5155747;27;19923;-48
2022/02/07 14:38:04;;;;;;;;;;;22.70;43.10;;;;;;5134765;27;19924;-45
2022/02/07 14:40:32;;;;;;;;;;;22.70;43.20;;;;;;5135343;27;19924;-46
2022/02/07 14:43:06;;;;;;;;;;;22.70;43.20;;;;;;5135388;27;20359;-44
2022/02/07 14:45:43;;;;;;;;;;;22.70;43.20;;;;;;5134959;27;20397;-47
2022/02/07 14:48:10;;;;;;;;;;;22.70;43.30;;;;;;5134857;27;19924;-44
2022/02/07 14:50:37;;;;;;;;;;;22.70;43.30;;;;;;5117000;27;19932;-46
2022/02/07 14:53:06;;;;;;;;;;;22.70;43.30;;;;;;5153630;27;19958;-45
2022/02/07 14:55:33;;;;;;;;;;;22.70;43.30;;;;;;5154908;27;20013;-48
2022/02/07 14:58:00;;;;;;;;;;;22.70;43.30;;;;;;5155563;27;19923;-44
2022/02/07 15:00:27;;;;;;;;;;;22.70;43.40;;;;;;5155004;27;20336;-45
2022/02/07 15:02:57;;;;;;;;;;;22.70;43.40;;;;;;5155370;27;19923;-49
2022/02/07 15:05:25;;;;;;;;;;;22.70;43.40;;;;;;5146445;27;19931;-44
2022/02/07 15:07:52;;;;;;;;;;;22.70;43.30;;;;;;5149925;27;20390;-48
2022/02/07 15:10:19;;;;;;;;;;;22.70;43.30;;;;;;5155230;27;19923;-52
2022/02/07 15:12:46;;;;;;;;;;;22.70;43.30;;;;;;5155022;27;20464;-48
2022/02/07 15:15:14;;;;;;;;;;;22.70;43.30;;;;;;5155133;27;19930;-45
2022/02/07 15:17:40;;;;;;;;;;;22.70;43.40;;;;;;5154841;27;19923;-50
2022/02/07 15:20:09;;;;;;;;;;;22.70;43.40;;;;;;5136954;27;20120;-48
2022/02/07 15:22:37;;;;;;;;;;;22.70;43.40;;;;;;5153629;27;19969;-52
2022/02/07 15:25:05;;;;;;;;;;;22.70;43.40;;;;;;5155239;27;19923;-48
2022/02/07 15:27:32;;;;;;;;;;;22.70;43.40;;;;;;5155165;27;20330;-51
2022/02/07 15:30:18;;;;;;;;;;;22.70;43.40;;;;;;5154898;27;19930;-47
2022/02/07 15:32:49;;;;;;;;;;;22.70;43.40;;;;;;5155319;27;19923;-51
2022/02/07 15:35:16;;;;;;;;;;;22.70;43.50;;;;;;5154954;27;19923;-49
2022/02/07 15:37:43;;;;;;;;;;;22.70;43.50;;;;;;5153903;27;19923;-47
2022/02/07 15:40:11;;;;;;;;;;;22.70;43.50;;;;;;5155268;27;19923;-51
2022/02/07 15:42:38;;;;;;;;;;;22.70;43.50;;;;;;5155206;27;19985;-49
2022/02/07 15:45:05;;;;;;;;;;;22.70;43.50;;;;;;5155009;27;19952;-48
2022/02/07 15:47:38;;;;;;;;;;;22.70;43.40;;;;;;5154687;27;19967;-50
2022/02/07 15:50:08;;;;;;;;;;;22.70;43.50;;;;;;5154791;27;19970;-46
2022/02/07 15:52:36;;;;;;;;;;;22.70;43.50;;;;;;5153682;27;19999;-51
2022/02/07 15:55:03;;;;;;;;;;;22.70;43.50;;;;;;5155006;27;19927;-49
2022/02/07 15:57:30;;;;;;;;;;;22.70;43.50;;;;;;5154877;27;19923;-44
2022/02/07 15:59:57;;;;;;;;;;;22.70;43.60;;;;;;5154829;27;19966;-45
2022/02/07 16:02:30;;;;;;;;;;;22.70;43.60;;;;;;5154639;27;20442;-49
2022/02/07 16:04:58;;;;;;;;;;;22.70;43.60;;;;;;5150026;27;20483;-45
2022/02/07 16:07:25;;;;;;;;;;;22.70;43.60;;;;;;5140293;27;20014;-49
2022/02/07 16:09:53;;;;;;;;;;;22.70;43.60;;;;;;5154745;27;19977;-50
2022/02/07 16:12:21;;;;;;;;;;;22.70;44.30;;;;;;5154962;27;19976;-50
2022/02/07 16:14:49;;;;;;;;;;;22.70;43.70;;;;;;5154948;27;20078;-45
2022/02/07 16:17:16;;;;;;;;;;;22.70;43.80;;;;;;5156826;27;19958;-46
2022/02/07 16:19:43;;;;;;;;;;;22.60;43.70;;;;;;5158406;27;19923;-45
2022/02/07 16:22:10;;;;;;;;;;;22.70;43.80;;;;;;5157139;27;19960;-49
2022/02/07 16:24:38;;;;;;;;;;;22.70;43.90;;;;;;5158364;27;19973;-45
2022/02/07 16:27:05;;;;;;;;;;;22.70;43.90;;;;;;5158630;27;19959;-45
2022/02/07 16:29:32;;;;;;;;;;;22.70;44.00;;;;;;5158609;27;20013;-48
2022/02/07 16:31:59;;;;;;;;;;;22.70;44.00;;;;;;5158436;27;19923;-52
2022/02/07 16:34:26;;;;;;;;;;;22.70;44.10;;;;;;5158438;27;20354;-50
2022/02/07 16:36:53;;;;;;;;;;;22.70;44.10;;;;;;5157711;27;20006;-48
2022/02/07 16:39:21;;;;;;;;;;;22.70;44.20;;;;;;5136875;27;19945;-53
2022/02/07 16:41:48;;;;;;;;;;;22.60;44.20;;;;;;5138286;27;19923;-45
2022/02/07 16:44:16;;;;;;;;;;;22.70;44.30;;;;;;5158219;27;19929;-45
2022/02/07 16:46:50;;;;;;;;;;;22.70;44.90;;;;;;5158206;27;19923;-47
2022/02/07 16:49:19;;;;;;;;;;;22.60;44.20;;;;;;5157713;27;20074;-47
2022/02/07 16:51:47;;;;;;;;;;;22.70;44.40;;;;;;5157968;27;20006;-49